sensor_id;sensor_type;location;lat;lon;timestamp;temperature;humidity
44886;DHT22;36669;51.428;21.162;2023-04-30T12:47:39;16.60;53.10
44886;DHT22;36669;51.428;21.162;2023-04-30T12:50:11;16.40;53.30
44886;DHT22;36669;51.428;21.162;2023-04-30T12:52:39;16.50;53.10
44886;DHT22;36669;51.428;21.162;2023-04-30T12:55:18;16.60;52.90
44886;DHT22;36669;51.428;21.162;2023-04-30T13:00:49;16.40;52.00
44886;DHT22;36669;51.428;21.162;2023-04-30T13:03:18;16.40;51.90
44886;DHT22;36669;51.428;21.162;2023-04-30T13:05:49;15.90;52.80
44886;DHT22;36669;51.428;21.162;2023-04-30T13:08:16;16.00;53.60
44886;DHT22;36669;51.428;21.162;2023-04-30T13:10:44;15.80;52.90
44886;DHT22;36669;51.428;21.162;2023-04-30T13:13:15;16.30;52.70
44886;DHT22;36669;51.428;21.162;2023-04-30T13:15:42;16.50;53.00
44886;DHT22;36669;51.428;21.162;2023-04-30T13:18:08;16.70;53.00
44886;DHT22;36669;51.428;21.162;2023-04-30T13:20:38;16.90;52.80
44886;DHT22;36669;51.428;21.162;2023-04-30T13:23:08;16.60;53.10
44886;DHT22;36669;51.428;21.162;2023-04-30T13:25:35;16.20;54.00
44886;DHT22;36669;51.428;21.162;2023-04-30T13:28:02;16.30;54.60
44886;DHT22;36669;51.428;21.162;2023-04-30T13:30:29;16.90;54.40
44886;DHT22;36669;51.428;21.162;2023-04-30T13:32:56;16.80;54.40
44886;DHT22;36669;51.428;21.162;2023-04-30T13:35:23;16.40;54.30
44886;DHT22;36669;51.428;21.162;2023-04-30T13:37:53;16.70;55.20
44886;DHT22;36669;51.428;21.162;2023-04-30T13:40:19;17.10;54.20
44886;DHT22;36669;51.428;21.162;2023-04-30T13:42:45;17.50;53.50
44886;DHT22;36669;51.428;21.162;2023-04-30T13:45:11;17.50;52.50
44886;DHT22;36669;51.428;21.162;2023-04-30T13:47:38;16.70;53.00
44886;DHT22;36669;51.428;21.162;2023-04-30T13:50:05;16.70;54.50
44886;DHT22;36669;51.428;21.162;2023-04-30T13:52:34;16.90;54.00
44886;DHT22;36669;51.428;21.162;2023-04-30T13:55:01;17.10;53.80
44886;DHT22;36669;51.428;21.162;2023-04-30T13:57:26;17.40;53.20
44886;DHT22;36669;51.428;21.162;2023-04-30T13:59:56;18.30;52.00
44886;DHT22;36669;51.428;21.162;2023-04-30T14:02:22;18.80;50.90
44886;DHT22;36669;51.428;21.162;2023-04-30T14:04:48;19.40;50.50
44886;DHT22;36669;51.428;21.162;2023-04-30T14:07:14;19.60;50.50
44886;DHT22;36669;51.428;21.162;2023-04-30T14:09:41;20.80;49.60
44886;DHT22;36669;51.428;21.162;2023-04-30T14:12:08;21.30;48.10
44886;DHT22;36669;51.428;21.162;2023-04-30T14:14:35;20.60;47.40
44886;DHT22;36669;51.428;21.162;2023-04-30T14:17:01;20.00;48.60
44886;DHT22;36669;51.428;21.162;2023-04-30T14:19:29;21.60;47.90
44886;DHT22;36669;51.428;21.162;2023-04-30T14:21:56;22.60;46.40
44886;DHT22;36669;51.428;21.162;2023-04-30T14:24:22;21.80;45.50
44886;DHT22;36669;51.428;21.162;2023-04-30T14:26:50;21.70;45.80
44886;DHT22;36669;51.428;21.162;2023-04-30T14:29:17;21.60;44.70
44886;DHT22;36669;51.428;21.162;2023-04-30T14:31:45;21.70;45.00
44886;DHT22;36669;51.428;21.162;2023-04-30T14:34:15;21.60;45.50
44886;DHT22;36669;51.428;21.162;2023-04-30T14:36:43;21.30;44.90
44886;DHT22;36669;51.428;21.162;2023-04-30T14:39:10;20.10;44.80
44886;DHT22;36669;51.428;21.162;2023-04-30T14:41:36;20.90;45.30
44886;DHT22;36669;51.428;21.162;2023-04-30T14:44:03;21.30;44.20
44886;DHT22;36669;51.428;21.162;2023-04-30T14:46:30;21.60;44.40
44886;DHT22;36669;51.428;21.162;2023-04-30T14:48:59;21.70;43.50
44886;DHT22;36669;51.428;21.162;2023-04-30T14:51:25;20.90;43.30
44886;DHT22;36669;51.428;21.162;2023-04-30T14:53:54;20.30;44.40
44886;DHT22;36669;51.428;21.162;2023-04-30T14:56:24;20.30;45.80
44886;DHT22;36669;51.428;21.162;2023-04-30T14:58:52;20.90;45.30
44886;DHT22;36669;51.428;21.162;2023-04-30T15:01:17;21.40;44.40
44886;DHT22;36669;51.428;21.162;2023-04-30T15:03:45;21.10;43.80
44886;DHT22;36669;51.428;21.162;2023-04-30T15:06:12;20.30;45.60
44886;DHT22;36669;51.428;21.162;2023-04-30T15:08:38;20.20;46.00
44886;DHT22;36669;51.428;21.162;2023-04-30T15:11:05;20.00;46.20
44886;DHT22;36669;51.428;21.162;2023-04-30T15:13:36;19.70;46.10
44886;DHT22;36669;51.428;21.162;2023-04-30T15:16:01;19.70;45.20
44886;DHT22;36669;51.428;21.162;2023-04-30T15:18:27;19.60;44.20
44886;DHT22;36669;51.428;21.162;2023-04-30T15:20:54;19.50;45.30
44886;DHT22;36669;51.428;21.162;2023-04-30T15:23:21;20.30;46.70
44886;DHT22;36669;51.428;21.162;2023-04-30T15:25:47;21.10;45.00
44886;DHT22;36669;51.428;21.162;2023-04-30T15:28:13;21.00;43.80
44886;DHT22;36669;51.428;21.162;2023-04-30T15:30:42;21.00;42.90
44886;DHT22;36669;51.428;21.162;2023-04-30T15:33:08;20.30;43.60
44886;DHT22;36669;51.428;21.162;2023-04-30T15:35:35;20.70;43.50
44886;DHT22;36669;51.428;21.162;2023-04-30T15:38:02;19.70;44.00
44886;DHT22;36669;51.428;21.162;2023-04-30T15:40:27;19.80;44.50
44886;DHT22;36669;51.428;21.162;2023-04-30T15:42:54;19.90;44.70
44886;DHT22;36669;51.428;21.162;2023-04-30T15:45:21;19.80;43.70
44886;DHT22;36669;51.428;21.162;2023-04-30T15:47:50;19.80;43.90
44886;DHT22;36669;51.428;21.162;2023-04-30T15:50:15;20.30;44.40
44886;DHT22;36669;51.428;21.162;2023-04-30T15:52:43;21.00;44.20
44886;DHT22;36669;51.428;21.162;2023-04-30T15:55:10;20.40;44.40
44886;DHT22;36669;51.428;21.162;2023-04-30T15:57:37;20.20;44.20
44886;DHT22;36669;51.428;21.162;2023-04-30T16:00:04;20.30;43.10
44886;DHT22;36669;51.428;21.162;2023-04-30T16:02:31;19.20;43.40
44886;DHT22;36669;51.428;21.162;2023-04-30T16:04:58;19.80;43.60
44886;DHT22;36669;51.428;21.162;2023-04-30T16:07:25;19.70;43.00
44886;DHT22;36669;51.428;21.162;2023-04-30T16:09:52;19.30;43.50
44886;DHT22;36669;51.428;21.162;2023-04-30T16:12:18;19.90;43.80
44886;DHT22;36669;51.428;21.162;2023-04-30T16:14:45;19.90;43.30
44886;DHT22;36669;51.428;21.162;2023-04-30T16:17:12;19.60;43.80
44886;DHT22;36669;51.428;21.162;2023-04-30T16:19:38;19.90;44.00
44886;DHT22;36669;51.428;21.162;2023-04-30T16:22:06;19.30;44.70
44886;DHT22;36669;51.428;21.162;2023-04-30T16:24:35;19.20;45.10
44886;DHT22;36669;51.428;21.162;2023-04-30T16:27:01;19.30;45.50
44886;DHT22;36669;51.428;21.162;2023-04-30T16:29:29;19.20;46.00
44886;DHT22;36669;51.428;21.162;2023-04-30T16:31:55;19.80;45.90
44886;DHT22;36669;51.428;21.162;2023-04-30T16:34:22;19.30;46.00
44886;DHT22;36669;51.428;21.162;2023-04-30T16:36:48;19.20;46.20
44886;DHT22;36669;51.428;21.162;2023-04-30T16:39:16;19.30;45.50
44886;DHT22;36669;51.428;21.162;2023-04-30T16:41:41;19.30;45.40
44886;DHT22;36669;51.428;21.162;2023-04-30T16:44:07;19.30;45.10
44886;DHT22;36669;51.428;21.162;2023-04-30T16:46:36;18.60;45.30
44886;DHT22;36669;51.428;21.162;2023-04-30T16:49:03;18.60;46.30
44886;DHT22;36669;51.428;21.162;2023-04-30T16:51:30;18.90;46.40
44886;DHT22;36669;51.428;21.162;2023-04-30T16:53:59;18.80;46.20
44886;DHT22;36669;51.428;21.162;2023-04-30T16:56:26;18.60;46.70
44886;DHT22;36669;51.428;21.162;2023-04-30T16:58:51;18.60;46.70
44886;DHT22;36669;51.428;21.162;2023-04-30T17:01:18;18.60;46.60
44886;DHT22;36669;51.428;21.162;2023-04-30T17:03:45;18.00;46.80
44886;DHT22;36669;51.428;21.162;2023-04-30T17:06:12;17.70;47.20
44886;DHT22;36669;51.428;21.162;2023-04-30T17:08:40;17.80;47.60
44886;DHT22;36669;51.428;21.162;2023-04-30T17:11:06;17.80;47.90
44886;DHT22;36669;51.428;21.162;2023-04-30T17:13:33;17.70;47.50
44886;DHT22;36669;51.428;21.162;2023-04-30T17:16:03;17.20;48.40
44886;DHT22;36669;51.428;21.162;2023-04-30T17:18:30;17.20;48.70
44886;DHT22;36669;51.428;21.162;2023-04-30T17:21:00;17.00;49.00
44886;DHT22;36669;51.428;21.162;2023-04-30T17:23:27;17.20;48.90
44886;DHT22;36669;51.428;21.162;2023-04-30T17:25:53;16.70;49.00
44886;DHT22;36669;51.428;21.162;2023-04-30T17:28:19;16.60;49.40
44886;DHT22;36669;51.428;21.162;2023-04-30T17:30:47;16.30;49.40
44886;DHT22;36669;51.428;21.162;2023-04-30T17:33:13;16.10;50.00
44886;DHT22;36669;51.428;21.162;2023-04-30T17:35:39;15.80;50.40
44886;DHT22;36669;51.428;21.162;2023-04-30T17:38:06;15.50;51.00
44886;DHT22;36669;51.428;21.162;2023-04-30T17:40:31;15.20;51.40
44886;DHT22;36669;51.428;21.162;2023-04-30T17:42:58;14.90;52.40
44886;DHT22;36669;51.428;21.162;2023-04-30T17:45:26;14.60;53.00
44886;DHT22;36669;51.428;21.162;2023-04-30T17:47:52;14.40;53.70
44886;DHT22;36669;51.428;21.162;2023-04-30T17:50:19;14.20;54.50
44886;DHT22;36669;51.428;21.162;2023-04-30T17:52:47;13.80;55.20
44886;DHT22;36669;51.428;21.162;2023-04-30T17:55:17;13.60;55.80
44886;DHT22;36669;51.428;21.162;2023-04-30T17:57:44;13.30;56.60
44886;DHT22;36669;51.428;21.162;2023-04-30T18:00:09;13.10;57.20
44886;DHT22;36669;51.428;21.162;2023-04-30T18:02:36;12.80;57.90
44886;DHT22;36669;51.428;21.162;2023-04-30T18:05:03;12.50;58.60
44886;DHT22;36669;51.428;21.162;2023-04-30T18:07:30;12.40;59.30
44886;DHT22;36669;51.428;21.162;2023-04-30T18:09:57;12.20;59.90
44886;DHT22;36669;51.428;21.162;2023-04-30T18:12:22;12.10;60.60
44886;DHT22;36669;51.428;21.162;2023-04-30T18:14:50;12.10;61.10
44886;DHT22;36669;51.428;21.162;2023-04-30T18:17:16;11.90;61.80
44886;DHT22;36669;51.428;21.162;2023-04-30T18:19:43;11.70;62.60
44886;DHT22;36669;51.428;21.162;2023-04-30T18:22:11;11.60;62.90
44886;DHT22;36669;51.428;21.162;2023-04-30T18:24:38;11.50;63.60
44886;DHT22;36669;51.428;21.162;2023-04-30T18:27:05;11.40;64.40
44886;DHT22;36669;51.428;21.162;2023-04-30T18:29:35;11.40;64.80
44886;DHT22;36669;51.428;21.162;2023-04-30T18:32:02;11.30;65.20
44886;DHT22;36669;51.428;21.162;2023-04-30T18:34:27;11.20;65.40
44886;DHT22;36669;51.428;21.162;2023-04-30T18:36:54;11.10;65.90
44886;DHT22;36669;51.428;21.162;2023-04-30T18:39:22;11.10;66.30
44886;DHT22;36669;51.428;21.162;2023-04-30T18:41:49;10.90;66.70
44886;DHT22;36669;51.428;21.162;2023-04-30T18:44:17;10.90;67.20
44886;DHT22;36669;51.428;21.162;2023-04-30T18:46:43;10.90;67.50
44886;DHT22;36669;51.428;21.162;2023-04-30T18:49:10;10.80;68.10
44886;DHT22;36669;51.428;21.162;2023-04-30T18:51:38;10.80;68.20
44886;DHT22;36669;51.428;21.162;2023-04-30T18:54:03;10.60;68.50
44886;DHT22;36669;51.428;21.162;2023-04-30T18:56:31;10.60;68.40
44886;DHT22;36669;51.428;21.162;2023-04-30T18:58:56;10.60;68.60
44886;DHT22;36669;51.428;21.162;2023-04-30T19:01:23;10.50;68.60
44886;DHT22;36669;51.428;21.162;2023-04-30T19:03:53;10.50;68.60
44886;DHT22;36669;51.428;21.162;2023-04-30T19:06:18;10.40;69.10
44886;DHT22;36669;51.428;21.162;2023-04-30T19:08:45;10.40;69.40
44886;DHT22;36669;51.428;21.162;2023-04-30T19:11:12;10.30;69.90
44886;DHT22;36669;51.428;21.162;2023-04-30T19:13:39;10.30;70.20
44886;DHT22;36669;51.428;21.162;2023-04-30T19:16:06;10.20;70.50
44886;DHT22;36669;51.428;21.162;2023-04-30T19:18:33;10.20;70.70
44886;DHT22;36669;51.428;21.162;2023-04-30T19:20:59;10.10;70.80
44886;DHT22;36669;51.428;21.162;2023-04-30T19:23:28;10.00;71.00
44886;DHT22;36669;51.428;21.162;2023-04-30T19:25:55;10.00;71.30
44886;DHT22;36669;51.428;21.162;2023-04-30T19:28:23;10.00;71.60
44886;DHT22;36669;51.428;21.162;2023-04-30T19:30:53;10.00;71.60
44886;DHT22;36669;51.428;21.162;2023-04-30T19:33:21;10.00;71.80
44886;DHT22;36669;51.428;21.162;2023-04-30T19:35:51;10.00;72.20
44886;DHT22;36669;51.428;21.162;2023-04-30T19:38:20;9.80;72.50
44886;DHT22;36669;51.428;21.162;2023-04-30T19:40:50;9.80;72.90
44886;DHT22;36669;51.428;21.162;2023-04-30T19:43:18;9.70;73.40
44886;DHT22;36669;51.428;21.162;2023-04-30T19:45:53;9.60;73.80
44886;DHT22;36669;51.428;21.162;2023-04-30T19:48:20;9.60;74.40
44886;DHT22;36669;51.428;21.162;2023-04-30T19:50:48;9.50;74.90
44886;DHT22;36669;51.428;21.162;2023-04-30T19:53:15;9.50;75.30
44886;DHT22;36669;51.428;21.162;2023-04-30T19:55:42;9.40;75.70
44886;DHT22;36669;51.428;21.162;2023-04-30T19:58:09;9.40;76.30
44886;DHT22;36669;51.428;21.162;2023-04-30T20:00:39;9.40;76.60
44886;DHT22;36669;51.428;21.162;2023-04-30T20:03:06;9.30;76.90
44886;DHT22;36669;51.428;21.162;2023-04-30T20:05:35;9.30;77.50
44886;DHT22;36669;51.428;21.162;2023-04-30T20:08:04;9.20;78.10
44886;DHT22;36669;51.428;21.162;2023-04-30T20:10:31;9.20;78.30
44886;DHT22;36669;51.428;21.162;2023-04-30T20:13:02;9.20;78.90
44886;DHT22;36669;51.428;21.162;2023-04-30T20:15:32;9.10;79.30
44886;DHT22;36669;51.428;21.162;2023-04-30T20:17:58;9.10;80.10
44886;DHT22;36669;51.428;21.162;2023-04-30T20:20:24;9.00;80.50
44886;DHT22;36669;51.428;21.162;2023-04-30T20:22:52;9.00;81.30
44886;DHT22;36669;51.428;21.162;2023-04-30T20:25:19;9.00;81.80
44886;DHT22;36669;51.428;21.162;2023-04-30T20:27:51;9.00;82.40
44886;DHT22;36669;51.428;21.162;2023-04-30T20:30:18;9.00;82.90
44886;DHT22;36669;51.428;21.162;2023-04-30T20:32:45;8.90;83.40
44886;DHT22;36669;51.428;21.162;2023-04-30T20:35:11;8.90;84.20
44886;DHT22;36669;51.428;21.162;2023-04-30T20:37:40;8.90;85.10
44886;DHT22;36669;51.428;21.162;2023-04-30T20:40:07;8.90;86.00
44886;DHT22;36669;51.428;21.162;2023-04-30T20:42:34;8.80;86.40
44886;DHT22;36669;51.428;21.162;2023-04-30T20:45:00;8.80;86.90
44886;DHT22;36669;51.428;21.162;2023-04-30T20:47:26;8.80;87.90
44886;DHT22;36669;51.428;21.162;2023-04-30T20:49:52;8.80;89.00
44886;DHT22;36669;51.428;21.162;2023-04-30T20:52:19;8.70;89.70
44886;DHT22;36669;51.428;21.162;2023-04-30T20:54:45;8.70;89.70
44886;DHT22;36669;51.428;21.162;2023-04-30T20:57:10;8.70;90.10
44886;DHT22;36669;51.428;21.162;2023-04-30T20:59:37;8.70;90.20
44886;DHT22;36669;51.428;21.162;2023-04-30T21:02:03;8.70;90.50
44886;DHT22;36669;51.428;21.162;2023-04-30T21:04:29;8.70;90.80
44886;DHT22;36669;51.428;21.162;2023-04-30T21:06:56;8.60;91.40
44886;DHT22;36669;51.428;21.162;2023-04-30T21:09:24;8.50;92.00
44886;DHT22;36669;51.428;21.162;2023-04-30T21:11:51;8.50;92.60
44886;DHT22;36669;51.428;21.162;2023-04-30T21:14:16;8.50;93.20
44886;DHT22;36669;51.428;21.162;2023-04-30T21:16:43;8.50;93.90
44886;DHT22;36669;51.428;21.162;2023-04-30T21:19:10;8.40;94.70
44886;DHT22;36669;51.428;21.162;2023-04-30T21:21:37;8.40;95.60
44886;DHT22;36669;51.428;21.162;2023-04-30T21:24:03;8.30;96.40
44886;DHT22;36669;51.428;21.162;2023-04-30T21:26:31;8.30;96.90
44886;DHT22;36669;51.428;21.162;2023-04-30T21:28:59;8.30;97.40
44886;DHT22;36669;51.428;21.162;2023-04-30T21:31:26;8.30;97.50
44886;DHT22;36669;51.428;21.162;2023-04-30T21:33:53;8.30;97.80
44886;DHT22;36669;51.428;21.162;2023-04-30T21:36:20;8.30;98.30
44886;DHT22;36669;51.428;21.162;2023-04-30T21:38:47;8.30;98.50
44886;DHT22;36669;51.428;21.162;2023-04-30T21:41:13;8.30;98.70
44886;DHT22;36669;51.428;21.162;2023-04-30T21:43:39;8.20;99.20
44886;DHT22;36669;51.428;21.162;2023-04-30T21:46:07;8.20;99.70
44886;DHT22;36669;51.428;21.162;2023-04-30T21:48:34;8.20;99.90
44886;DHT22;36669;51.428;21.162;2023-04-30T21:51:00;8.20;99.90
44886;DHT22;36669;51.428;21.162;2023-04-30T21:53:26;8.10;99.90
44886;DHT22;36669;51.428;21.162;2023-04-30T21:55:53;8.00;99.90
44886;DHT22;36669;51.428;21.162;2023-04-30T21:58:22;8.00;99.90
44886;DHT22;36669;51.428;21.162;2023-04-30T22:00:49;8.00;99.90
44886;DHT22;36669;51.428;21.162;2023-04-30T22:03:16;7.90;99.90
44886;DHT22;36669;51.428;21.162;2023-04-30T22:05:43;7.90;99.90
44886;DHT22;36669;51.428;21.162;2023-04-30T22:08:11;7.80;99.90
44886;DHT22;36669;51.428;21.162;2023-04-30T22:10:38;7.80;99.90
44886;DHT22;36669;51.428;21.162;2023-04-30T22:13:05;7.80;99.90
44886;DHT22;36669;51.428;21.162;2023-04-30T22:15:32;7.80;99.90
44886;DHT22;36669;51.428;21.162;2023-04-30T22:18:00;7.80;99.90
44886;DHT22;36669;51.428;21.162;2023-04-30T22:20:27;7.80;99.90
44886;DHT22;36669;51.428;21.162;2023-04-30T22:22:52;7.90;99.90
44886;DHT22;36669;51.428;21.162;2023-04-30T22:25:19;7.80;99.90
44886;DHT22;36669;51.428;21.162;2023-04-30T22:27:47;7.70;99.90
44886;DHT22;36669;51.428;21.162;2023-04-30T22:30:14;7.60;99.90
44886;DHT22;36669;51.428;21.162;2023-04-30T22:32:42;7.50;99.90
44886;DHT22;36669;51.428;21.162;2023-04-30T22:35:09;7.40;99.90
44886;DHT22;36669;51.428;21.162;2023-04-30T22:37:37;7.20;99.90
44886;DHT22;36669;51.428;21.162;2023-04-30T22:40:05;7.00;99.90
44886;DHT22;36669;51.428;21.162;2023-04-30T22:42:30;7.00;99.90
44886;DHT22;36669;51.428;21.162;2023-04-30T22:44:58;7.00;99.90
44886;DHT22;36669;51.428;21.162;2023-04-30T22:47:25;6.90;99.90
44886;DHT22;36669;51.428;21.162;2023-04-30T22:49:55;6.90;99.90
44886;DHT22;36669;51.428;21.162;2023-04-30T22:52:23;6.80;99.90
44886;DHT22;36669;51.428;21.162;2023-04-30T22:54:51;6.60;99.90
44886;DHT22;36669;51.428;21.162;2023-04-30T22:57:17;6.50;99.90
44886;DHT22;36669;51.428;21.162;2023-04-30T22:59:44;6.50;99.90
44886;DHT22;36669;51.428;21.162;2023-04-30T23:02:09;6.40;99.90
44886;DHT22;36669;51.428;21.162;2023-04-30T23:04:38;6.40;99.90
44886;DHT22;36669;51.428;21.162;2023-04-30T23:07:04;6.30;99.90
44886;DHT22;36669;51.428;21.162;2023-04-30T23:09:30;6.20;99.90
44886;DHT22;36669;51.428;21.162;2023-04-30T23:11:56;6.20;99.90
44886;DHT22;36669;51.428;21.162;2023-04-30T23:14:23;6.10;99.90
44886;DHT22;36669;51.428;21.162;2023-04-30T23:16:51;6.10;99.90
44886;DHT22;36669;51.428;21.162;2023-04-30T23:19:16;6.00;99.90
44886;DHT22;36669;51.428;21.162;2023-04-30T23:21:43;6.00;99.90
44886;DHT22;36669;51.428;21.162;2023-04-30T23:24:08;5.90;99.90
44886;DHT22;36669;51.428;21.162;2023-04-30T23:26:37;5.80;99.90
44886;DHT22;36669;51.428;21.162;2023-04-30T23:29:04;5.80;99.90
44886;DHT22;36669;51.428;21.162;2023-04-30T23:31:31;5.70;99.90
44886;DHT22;36669;51.428;21.162;2023-04-30T23:33:56;5.70;99.90
44886;DHT22;36669;51.428;21.162;2023-04-30T23:36:23;5.60;99.90
44886;DHT22;36669;51.428;21.162;2023-04-30T23:38:49;5.60;99.90
44886;DHT22;36669;51.428;21.162;2023-04-30T23:41:15;5.60;99.90
44886;DHT22;36669;51.428;21.162;2023-04-30T23:43:42;5.60;99.90
44886;DHT22;36669;51.428;21.162;2023-04-30T23:46:09;5.50;99.90
44886;DHT22;36669;51.428;21.162;2023-04-30T23:48:36;5.50;99.90
44886;DHT22;36669;51.428;21.162;2023-04-30T23:51:04;5.60;99.90
44886;DHT22;36669;51.428;21.162;2023-04-30T23:53:34;5.60;99.90
44886;DHT22;36669;51.428;21.162;2023-04-30T23:56:01;5.60;99.90
44886;DHT22;36669;51.428;21.162;2023-04-30T23:58:27;5.60;99.90
